Accueil
METAR-TAF:

METAR-TAF

Aéroports :

Laupheim, Allemagne

latitude: 48-13N, longitude: 009-55E, altitude: 538 m

Observation

Le bulletin a été fait il y a 1 heure et 1 minutes, à 01:20 UTC
Vent 3 kt de nord-est
Température -2°C
Humidité 93%
Pression 1021 hPa
Visibilité 10 km ou plus
Quelques nuages à une hauteur de 7000 ft

METAR: ETHL 170120Z 04003KT 9999 FEW070 M02/M03 Q1021 BLU+

Heure: 04:21 (02:21 UTC)

Prévision

Le bulletin a été fait il y a 19 heures et 1 minutes, à 07:20 UTC
Prévision valable du 16 à 08 UTC au 16 à 17 UTC
Vent 10 kt de nord-est
Visibilité 10 km ou plus
Quelques nuages à une hauteur de 1500 ft
Nuages épars à une hauteur de 3000 ft

TAF: ETHL 160720Z 1608/1617 05010KT 9999 NSW FEW015 SCT030

Observations et prévisions météorologiques de plus de 4000 aéroports (messages METAR et TAF).

Les stations disponibles sont représentées par des disques jaunes et rouges sur la carte.

Passer la souris dessus pour voir le nom de la station.

Cliquer dessus pour voir les observations et prévisions météorologiques.

Pour changer de carte: cliquez sur les boutons verts avec une croix noire pour zoomer, sur le bouton vert avec un tiret pour effectuer un zoom arrière, ou sur les flèches vertes pour les cartes adjacentes.


METAR-TAF: